sensor_id;sensor_type;location;lat;lon;timestamp;P1;durP1;ratioP1;P2;durP2;ratioP2
55647;SDS011;45266;48.756;9.246;2022-11-09T00:00:36;11.07;;;7.30;;
55647;SDS011;45266;48.756;9.246;2022-11-09T00:01:38;8.27;;;6.83;;
55647;SDS011;45266;48.756;9.246;2022-11-09T00:02:40;12.67;;;7.37;;
55647;SDS011;45266;48.756;9.246;2022-11-09T00:03:44;9.40;;;6.63;;
55647;SDS011;45266;48.756;9.246;2022-11-09T00:04:46;12.17;;;7.00;;
55647;SDS011;45266;48.756;9.246;2022-11-09T00:05:55;9.68;;;6.18;;
55647;SDS011;45266;48.756;9.246;2022-11-09T00:06:58;8.60;;;5.77;;
55647;SDS011;45266;48.756;9.246;2022-11-09T00:08:05;11.30;;;7.13;;
55647;SDS011;45266;48.756;9.246;2022-11-09T00:09:07;8.53;;;6.80;;
55647;SDS011;45266;48.756;9.246;2022-11-09T00:10:10;7.63;;;6.28;;
55647;SDS011;45266;48.756;9.246;2022-11-09T00:11:11;9.33;;;6.30;;
55647;SDS011;45266;48.756;9.246;2022-11-09T00:12:13;9.70;;;6.30;;
55647;SDS011;45266;48.756;9.246;2022-11-09T00:13:15;15.70;;;7.07;;
55647;SDS011;45266;48.756;9.246;2022-11-09T00:14:17;8.57;;;6.20;;
55647;SDS011;45266;48.756;9.246;2022-11-09T00:15:20;13.13;;;6.10;;
55647;SDS011;45266;48.756;9.246;2022-11-09T00:16:22;8.27;;;5.68;;
55647;SDS011;45266;48.756;9.246;2022-11-09T00:17:23;9.90;;;5.93;;
55647;SDS011;45266;48.756;9.246;2022-11-09T00:18:25;9.90;;;7.15;;
55647;SDS011;45266;48.756;9.246;2022-11-09T00:19:27;12.23;;;7.65;;
55647;SDS011;45266;48.756;9.246;2022-11-09T00:20:29;11.33;;;7.20;;
55647;SDS011;45266;48.756;9.246;2022-11-09T00:21:30;12.15;;;7.03;;
55647;SDS011;45266;48.756;9.246;2022-11-09T00:22:32;11.00;;;6.72;;
55647;SDS011;45266;48.756;9.246;2022-11-09T00:23:34;12.13;;;7.18;;
55647;SDS011;45266;48.756;9.246;2022-11-09T00:24:36;8.97;;;5.87;;
55647;SDS011;45266;48.756;9.246;2022-11-09T00:25:38;8.32;;;6.60;;
55647;SDS011;45266;48.756;9.246;2022-11-09T00:26:40;10.27;;;6.90;;
55647;SDS011;45266;48.756;9.246;2022-11-09T00:27:42;11.15;;;6.20;;
55647;SDS011;45266;48.756;9.246;2022-11-09T00:28:43;16.63;;;7.30;;
55647;SDS011;45266;48.756;9.246;2022-11-09T00:29:45;12.48;;;7.45;;
55647;SDS011;45266;48.756;9.246;2022-11-09T00:30:47;14.43;;;7.90;;
55647;SDS011;45266;48.756;9.246;2022-11-09T00:31:49;13.57;;;8.13;;
55647;SDS011;45266;48.756;9.246;2022-11-09T00:32:50;11.83;;;6.70;;
55647;SDS011;45266;48.756;9.246;2022-11-09T00:33:54;10.63;;;6.30;;
55647;SDS011;45266;48.756;9.246;2022-11-09T00:34:57;11.60;;;6.53;;
55647;SDS011;45266;48.756;9.246;2022-11-09T00:36:01;12.95;;;6.45;;
55647;SDS011;45266;48.756;9.246;2022-11-09T00:37:07;12.43;;;6.20;;
55647;SDS011;45266;48.756;9.246;2022-11-09T00:38:09;9.23;;;6.07;;
55647;SDS011;45266;48.756;9.246;2022-11-09T00:39:10;7.23;;;5.60;;
55647;SDS011;45266;48.756;9.246;2022-11-09T00:40:12;7.15;;;4.95;;
55647;SDS011;45266;48.756;9.246;2022-11-09T00:41:14;9.25;;;5.95;;
55647;SDS011;45266;48.756;9.246;2022-11-09T00:42:16;9.75;;;6.28;;
55647;SDS011;45266;48.756;9.246;2022-11-09T00:43:18;12.30;;;6.37;;
55647;SDS011;45266;48.756;9.246;2022-11-09T00:44:20;9.63;;;6.37;;
55647;SDS011;45266;48.756;9.246;2022-11-09T00:45:22;8.02;;;5.47;;
55647;SDS011;45266;48.756;9.246;2022-11-09T00:46:24;10.13;;;5.93;;
55647;SDS011;45266;48.756;9.246;2022-11-09T00:47:26;8.55;;;5.85;;
55647;SDS011;45266;48.756;9.246;2022-11-09T00:48:27;8.07;;;5.60;;
55647;SDS011;45266;48.756;9.246;2022-11-09T00:49:29;6.75;;;5.40;;
55647;SDS011;45266;48.756;9.246;2022-11-09T00:50:31;8.93;;;5.83;;
55647;SDS011;45266;48.756;9.246;2022-11-09T00:51:33;12.15;;;7.00;;
55647;SDS011;45266;48.756;9.246;2022-11-09T00:52:35;8.17;;;5.80;;
55647;SDS011;45266;48.756;9.246;2022-11-09T00:53:37;13.17;;;6.63;;
55647;SDS011;45266;48.756;9.246;2022-11-09T00:54:39;11.27;;;6.30;;
55647;SDS011;45266;48.756;9.246;2022-11-09T00:55:41;9.32;;;5.15;;
55647;SDS011;45266;48.756;9.246;2022-11-09T00:56:42;9.47;;;5.73;;
55647;SDS011;45266;48.756;9.246;2022-11-09T00:57:45;8.45;;;5.45;;
55647;SDS011;45266;48.756;9.246;2022-11-09T00:58:51;12.50;;;5.93;;
55647;SDS011;45266;48.756;9.246;2022-11-09T00:59:54;9.95;;;5.68;;
55647;SDS011;45266;48.756;9.246;2022-11-09T01:00:57;10.83;;;5.80;;
55647;SDS011;45266;48.756;9.246;2022-11-09T01:02:00;8.15;;;5.80;;
55647;SDS011;45266;48.756;9.246;2022-11-09T01:03:02;10.57;;;6.33;;
55647;SDS011;45266;48.756;9.246;2022-11-09T01:04:03;8.77;;;6.10;;
55647;SDS011;45266;48.756;9.246;2022-11-09T01:05:05;8.33;;;6.23;;
55647;SDS011;45266;48.756;9.246;2022-11-09T01:06:07;9.85;;;6.45;;
55647;SDS011;45266;48.756;9.246;2022-11-09T01:07:13;9.88;;;6.15;;
55647;SDS011;45266;48.756;9.246;2022-11-09T01:08:15;12.77;;;6.13;;
55647;SDS011;45266;48.756;9.246;2022-11-09T01:09:17;10.60;;;6.68;;
55647;SDS011;45266;48.756;9.246;2022-11-09T01:10:19;8.60;;;5.87;;
55647;SDS011;45266;48.756;9.246;2022-11-09T01:11:21;12.50;;;6.50;;
55647;SDS011;45266;48.756;9.246;2022-11-09T01:12:23;9.63;;;6.63;;
55647;SDS011;45266;48.756;9.246;2022-11-09T01:13:25;11.15;;;6.43;;
55647;SDS011;45266;48.756;9.246;2022-11-09T01:14:27;11.23;;;5.80;;
55647;SDS011;45266;48.756;9.246;2022-11-09T01:15:28;10.60;;;6.50;;
55647;SDS011;45266;48.756;9.246;2022-11-09T01:16:30;13.02;;;5.88;;
55647;SDS011;45266;48.756;9.246;2022-11-09T01:17:32;9.85;;;6.70;;
55647;SDS011;45266;48.756;9.246;2022-11-09T01:18:33;14.10;;;6.60;;
55647;SDS011;45266;48.756;9.246;2022-11-09T01:19:35;16.77;;;7.40;;
55647;SDS011;45266;48.756;9.246;2022-11-09T01:20:38;14.03;;;6.77;;
55647;SDS011;45266;48.756;9.246;2022-11-09T01:21:41;13.73;;;6.80;;
55647;SDS011;45266;48.756;9.246;2022-11-09T01:22:43;12.00;;;7.30;;
55647;SDS011;45266;48.756;9.246;2022-11-09T01:23:44;12.80;;;7.90;;
55647;SDS011;45266;48.756;9.246;2022-11-09T01:24:46;12.23;;;6.87;;
55647;SDS011;45266;48.756;9.246;2022-11-09T01:25:48;10.93;;;7.07;;
55647;SDS011;45266;48.756;9.246;2022-11-09T01:26:57;13.43;;;6.87;;
55647;SDS011;45266;48.756;9.246;2022-11-09T01:27:58;14.20;;;6.60;;
55647;SDS011;45266;48.756;9.246;2022-11-09T01:29:00;10.63;;;6.57;;
55647;SDS011;45266;48.756;9.246;2022-11-09T01:30:02;10.02;;;6.65;;
55647;SDS011;45266;48.756;9.246;2022-11-09T01:31:12;9.95;;;6.72;;
55647;SDS011;45266;48.756;9.246;2022-11-09T01:32:15;16.20;;;8.33;;
55647;SDS011;45266;48.756;9.246;2022-11-09T01:33:17;11.85;;;6.72;;
55647;SDS011;45266;48.756;9.246;2022-11-09T01:34:19;9.05;;;6.80;;
55647;SDS011;45266;48.756;9.246;2022-11-09T01:35:21;8.93;;;5.97;;
55647;SDS011;45266;48.756;9.246;2022-11-09T01:36:23;15.20;;;7.13;;
55647;SDS011;45266;48.756;9.246;2022-11-09T01:37:25;11.40;;;6.30;;
55647;SDS011;45266;48.756;9.246;2022-11-09T01:38:26;10.17;;;6.93;;
55647;SDS011;45266;48.756;9.246;2022-11-09T01:39:28;7.90;;;5.90;;
55647;SDS011;45266;48.756;9.246;2022-11-09T01:40:30;7.70;;;5.80;;
55647;SDS011;45266;48.756;9.246;2022-11-09T01:41:33;11.63;;;5.50;;
55647;SDS011;45266;48.756;9.246;2022-11-09T01:42:35;8.80;;;5.87;;
55647;SDS011;45266;48.756;9.246;2022-11-09T01:43:40;7.43;;;5.30;;
55647;SDS011;45266;48.756;9.246;2022-11-09T01:44:41;10.77;;;5.93;;
55647;SDS011;45266;48.756;9.246;2022-11-09T01:47:14;10.27;;;6.40;;
55647;SDS011;45266;48.756;9.246;2022-11-09T01:48:33;13.18;;;6.15;;
55647;SDS011;45266;48.756;9.246;2022-11-09T01:49:46;9.30;;;6.40;;
55647;SDS011;45266;48.756;9.246;2022-11-09T01:50:58;8.47;;;5.40;;
55647;SDS011;45266;48.756;9.246;2022-11-09T01:52:34;8.93;;;5.65;;
55647;SDS011;45266;48.756;9.246;2022-11-09T01:53:40;8.43;;;5.30;;
55647;SDS011;45266;48.756;9.246;2022-11-09T01:54:52;9.68;;;5.82;;
55647;SDS011;45266;48.756;9.246;2022-11-09T01:56:00;9.10;;;5.63;;
55647;SDS011;45266;48.756;9.246;2022-11-09T01:57:07;10.73;;;5.97;;
55647;SDS011;45266;48.756;9.246;2022-11-09T01:58:15;7.33;;;5.57;;
55647;SDS011;45266;48.756;9.246;2022-11-09T01:59:29;9.43;;;5.97;;
55647;SDS011;45266;48.756;9.246;2022-11-09T02:00:34;8.35;;;5.57;;
55647;SDS011;45266;48.756;9.246;2022-11-09T02:01:39;11.95;;;6.03;;
55647;SDS011;45266;48.756;9.246;2022-11-09T02:02:45;9.45;;;6.60;;
55647;SDS011;45266;48.756;9.246;2022-11-09T02:03:54;12.10;;;5.97;;
55647;SDS011;45266;48.756;9.246;2022-11-09T02:05:02;7.35;;;5.45;;
55647;SDS011;45266;48.756;9.246;2022-11-09T02:06:09;8.20;;;6.15;;
55647;SDS011;45266;48.756;9.246;2022-11-09T02:07:14;10.73;;;6.43;;
55647;SDS011;45266;48.756;9.246;2022-11-09T02:08:17;7.57;;;5.30;;
55647;SDS011;45266;48.756;9.246;2022-11-09T02:09:24;8.90;;;6.00;;
55647;SDS011;45266;48.756;9.246;2022-11-09T02:10:42;10.15;;;6.28;;
55647;SDS011;45266;48.756;9.246;2022-11-09T02:12:03;13.60;;;7.22;;
55647;SDS011;45266;48.756;9.246;2022-11-09T02:13:06;11.13;;;6.82;;
55647;SDS011;45266;48.756;9.246;2022-11-09T02:14:09;14.82;;;7.93;;
55647;SDS011;45266;48.756;9.246;2022-11-09T02:15:12;12.30;;;7.63;;
55647;SDS011;45266;48.756;9.246;2022-11-09T02:16:14;11.90;;;7.47;;
55647;SDS011;45266;48.756;9.246;2022-11-09T02:17:16;11.87;;;6.97;;
55647;SDS011;45266;48.756;9.246;2022-11-09T02:18:19;12.37;;;7.20;;
55647;SDS011;45266;48.756;9.246;2022-11-09T02:19:21;13.07;;;7.57;;
55647;SDS011;45266;48.756;9.246;2022-11-09T02:20:23;13.25;;;7.10;;
55647;SDS011;45266;48.756;9.246;2022-11-09T02:21:26;19.35;;;10.32;;
55647;SDS011;45266;48.756;9.246;2022-11-09T02:22:30;18.95;;;10.65;;
55647;SDS011;45266;48.756;9.246;2022-11-09T02:23:32;17.88;;;10.07;;
55647;SDS011;45266;48.756;9.246;2022-11-09T02:24:34;20.75;;;9.50;;
55647;SDS011;45266;48.756;9.246;2022-11-09T02:25:36;23.20;;;9.80;;
55647;SDS011;45266;48.756;9.246;2022-11-09T02:26:39;12.68;;;8.55;;
55647;SDS011;45266;48.756;9.246;2022-11-09T02:27:44;13.23;;;7.55;;
55647;SDS011;45266;48.756;9.246;2022-11-09T02:28:46;15.35;;;7.95;;
55647;SDS011;45266;48.756;9.246;2022-11-09T02:29:48;11.57;;;8.27;;
55647;SDS011;45266;48.756;9.246;2022-11-09T02:30:51;13.75;;;7.68;;
55647;SDS011;45266;48.756;9.246;2022-11-09T02:31:58;10.10;;;7.03;;
55647;SDS011;45266;48.756;9.246;2022-11-09T02:33:03;15.15;;;8.05;;
55647;SDS011;45266;48.756;9.246;2022-11-09T02:34:09;11.88;;;7.03;;
55647;SDS011;45266;48.756;9.246;2022-11-09T02:35:14;10.65;;;7.35;;
55647;SDS011;45266;48.756;9.246;2022-11-09T02:36:16;12.57;;;8.10;;
55647;SDS011;45266;48.756;9.246;2022-11-09T02:37:34;13.10;;;7.55;;
55647;SDS011;45266;48.756;9.246;2022-11-09T02:38:40;10.77;;;7.28;;
55647;SDS011;45266;48.756;9.246;2022-11-09T02:39:42;14.25;;;7.50;;
55647;SDS011;45266;48.756;9.246;2022-11-09T02:40:44;10.02;;;6.50;;
55647;SDS011;45266;48.756;9.246;2022-11-09T02:41:49;11.38;;;6.60;;
55647;SDS011;45266;48.756;9.246;2022-11-09T02:43:04;10.63;;;5.78;;
55647;SDS011;45266;48.756;9.246;2022-11-09T02:44:07;10.63;;;6.03;;
55647;SDS011;45266;48.756;9.246;2022-11-09T02:45:09;9.50;;;6.10;;
55647;SDS011;45266;48.756;9.246;2022-11-09T02:46:12;8.43;;;6.40;;
55647;SDS011;45266;48.756;9.246;2022-11-09T02:47:14;9.87;;;6.07;;
55647;SDS011;45266;48.756;9.246;2022-11-09T02:48:15;9.57;;;6.17;;
55647;SDS011;45266;48.756;9.246;2022-11-09T02:49:17;13.07;;;6.60;;
55647;SDS011;45266;48.756;9.246;2022-11-09T02:50:19;11.50;;;6.67;;
55647;SDS011;45266;48.756;9.246;2022-11-09T02:51:21;9.20;;;6.25;;
55647;SDS011;45266;48.756;9.246;2022-11-09T02:52:23;8.68;;;6.10;;
55647;SDS011;45266;48.756;9.246;2022-11-09T02:53:25;8.57;;;5.90;;
55647;SDS011;45266;48.756;9.246;2022-11-09T02:54:27;9.40;;;6.90;;
55647;SDS011;45266;48.756;9.246;2022-11-09T02:55:29;10.07;;;7.10;;
55647;SDS011;45266;48.756;9.246;2022-11-09T02:56:31;11.63;;;6.87;;
55647;SDS011;45266;48.756;9.246;2022-11-09T02:57:33;8.70;;;7.18;;
55647;SDS011;45266;48.756;9.246;2022-11-09T02:58:35;9.05;;;6.97;;
55647;SDS011;45266;48.756;9.246;2022-11-09T02:59:36;13.07;;;7.60;;
55647;SDS011;45266;48.756;9.246;2022-11-09T03:00:38;10.13;;;6.68;;
55647;SDS011;45266;48.756;9.246;2022-11-09T03:01:40;9.90;;;6.45;;
55647;SDS011;45266;48.756;9.246;2022-11-09T03:02:41;11.23;;;8.25;;
55647;SDS011;45266;48.756;9.246;2022-11-09T03:03:43;11.93;;;8.73;;
55647;SDS011;45266;48.756;9.246;2022-11-09T03:04:45;11.03;;;8.93;;
55647;SDS011;45266;48.756;9.246;2022-11-09T03:05:47;14.13;;;9.57;;
55647;SDS011;45266;48.756;9.246;2022-11-09T03:06:48;14.68;;;9.50;;
55647;SDS011;45266;48.756;9.246;2022-11-09T03:07:50;14.97;;;9.03;;
55647;SDS011;45266;48.756;9.246;2022-11-09T03:08:52;11.93;;;8.80;;
55647;SDS011;45266;48.756;9.246;2022-11-09T03:09:54;10.03;;;8.07;;
55647;SDS011;45266;48.756;9.246;2022-11-09T03:10:57;13.27;;;8.77;;
55647;SDS011;45266;48.756;9.246;2022-11-09T03:11:59;10.17;;;7.73;;
55647;SDS011;45266;48.756;9.246;2022-11-09T03:13:21;10.47;;;8.30;;
55647;SDS011;45266;48.756;9.246;2022-11-09T03:14:23;11.67;;;8.57;;
55647;SDS011;45266;48.756;9.246;2022-11-09T03:15:25;11.40;;;7.80;;
55647;SDS011;45266;48.756;9.246;2022-11-09T03:16:27;10.13;;;8.00;;
55647;SDS011;45266;48.756;9.246;2022-11-09T03:17:30;10.50;;;8.00;;
55647;SDS011;45266;48.756;9.246;2022-11-09T03:18:32;12.32;;;8.10;;
55647;SDS011;45266;48.756;9.246;2022-11-09T03:19:34;11.63;;;7.80;;
55647;SDS011;45266;48.756;9.246;2022-11-09T03:20:35;10.83;;;7.70;;
55647;SDS011;45266;48.756;9.246;2022-11-09T03:21:37;12.73;;;8.00;;
55647;SDS011;45266;48.756;9.246;2022-11-09T03:22:39;8.68;;;7.07;;
55647;SDS011;45266;48.756;9.246;2022-11-09T03:23:41;10.07;;;7.80;;
55647;SDS011;45266;48.756;9.246;2022-11-09T03:24:42;11.27;;;7.60;;
55647;SDS011;45266;48.756;9.246;2022-11-09T03:25:44;11.80;;;7.60;;
55647;SDS011;45266;48.756;9.246;2022-11-09T03:26:46;9.75;;;7.00;;
55647;SDS011;45266;48.756;9.246;2022-11-09T03:27:48;10.00;;;7.35;;
55647;SDS011;45266;48.756;9.246;2022-11-09T03:28:50;10.07;;;7.60;;
55647;SDS011;45266;48.756;9.246;2022-11-09T03:29:52;10.43;;;7.45;;
55647;SDS011;45266;48.756;9.246;2022-11-09T03:30:53;9.60;;;7.13;;
55647;SDS011;45266;48.756;9.246;2022-11-09T03:31:55;9.95;;;7.85;;
55647;SDS011;45266;48.756;9.246;2022-11-09T03:32:57;11.13;;;8.23;;
55647;SDS011;45266;48.756;9.246;2022-11-09T03:34:04;9.13;;;7.75;;
55647;SDS011;45266;48.756;9.246;2022-11-09T03:35:06;11.30;;;7.93;;
55647;SDS011;45266;48.756;9.246;2022-11-09T03:36:08;10.32;;;8.13;;
55647;SDS011;45266;48.756;9.246;2022-11-09T03:37:09;10.70;;;8.23;;
55647;SDS011;45266;48.756;9.246;2022-11-09T03:38:11;10.57;;;7.45;;
55647;SDS011;45266;48.756;9.246;2022-11-09T03:39:13;10.83;;;7.37;;
55647;SDS011;45266;48.756;9.246;2022-11-09T03:40:15;10.45;;;7.82;;
55647;SDS011;45266;48.756;9.246;2022-11-09T03:41:17;10.88;;;7.82;;
55647;SDS011;45266;48.756;9.246;2022-11-09T03:42:19;10.13;;;7.17;;
55647;SDS011;45266;48.756;9.246;2022-11-09T03:43:20;11.88;;;7.68;;
55647;SDS011;45266;48.756;9.246;2022-11-09T03:44:23;11.52;;;7.82;;
55647;SDS011;45266;48.756;9.246;2022-11-09T03:45:24;10.35;;;7.78;;
55647;SDS011;45266;48.756;9.246;2022-11-09T03:46:28;12.20;;;8.20;;
55647;SDS011;45266;48.756;9.246;2022-11-09T03:47:29;17.33;;;8.73;;
55647;SDS011;45266;48.756;9.246;2022-11-09T03:48:31;12.25;;;7.78;;
55647;SDS011;45266;48.756;9.246;2022-11-09T03:49:33;16.00;;;9.07;;
55647;SDS011;45266;48.756;9.246;2022-11-09T03:50:35;13.90;;;8.38;;
55647;SDS011;45266;48.756;9.246;2022-11-09T03:51:40;12.18;;;8.55;;
55647;SDS011;45266;48.756;9.246;2022-11-09T03:52:45;11.90;;;8.38;;
55647;SDS011;45266;48.756;9.246;2022-11-09T03:53:47;15.57;;;8.70;;
55647;SDS011;45266;48.756;9.246;2022-11-09T03:54:49;13.07;;;9.07;;
55647;SDS011;45266;48.756;9.246;2022-11-09T03:55:51;11.07;;;9.13;;
55647;SDS011;45266;48.756;9.246;2022-11-09T03:56:52;14.75;;;10.15;;
55647;SDS011;45266;48.756;9.246;2022-11-09T03:57:54;12.73;;;8.63;;
55647;SDS011;45266;48.756;9.246;2022-11-09T03:58:56;13.45;;;9.35;;
55647;SDS011;45266;48.756;9.246;2022-11-09T03:59:57;12.20;;;9.60;;
55647;SDS011;45266;48.756;9.246;2022-11-09T04:00:59;13.75;;;9.32;;
55647;SDS011;45266;48.756;9.246;2022-11-09T04:02:01;13.02;;;9.50;;
55647;SDS011;45266;48.756;9.246;2022-11-09T04:03:03;11.45;;;8.77;;
55647;SDS011;45266;48.756;9.246;2022-11-09T04:04:04;13.75;;;8.82;;
55647;SDS011;45266;48.756;9.246;2022-11-09T04:05:06;12.75;;;8.32;;
55647;SDS011;45266;48.756;9.246;2022-11-09T04:06:09;11.05;;;8.50;;
55647;SDS011;45266;48.756;9.246;2022-11-09T04:07:10;12.60;;;9.10;;
55647;SDS011;45266;48.756;9.246;2022-11-09T04:08:12;12.73;;;8.27;;
55647;SDS011;45266;48.756;9.246;2022-11-09T04:09:14;12.15;;;9.10;;
55647;SDS011;45266;48.756;9.246;2022-11-09T04:10:16;24.10;;;18.17;;
55647;SDS011;45266;48.756;9.246;2022-11-09T04:11:18;16.70;;;9.75;;
55647;SDS011;45266;48.756;9.246;2022-11-09T04:12:20;12.73;;;8.50;;
55647;SDS011;45266;48.756;9.246;2022-11-09T04:13:22;12.82;;;8.75;;
55647;SDS011;45266;48.756;9.246;2022-11-09T04:14:23;9.88;;;8.60;;
55647;SDS011;45266;48.756;9.246;2022-11-09T04:15:25;12.18;;;8.85;;
55647;SDS011;45266;48.756;9.246;2022-11-09T04:16:27;12.55;;;8.68;;
55647;SDS011;45266;48.756;9.246;2022-11-09T04:17:29;11.68;;;8.73;;
55647;SDS011;45266;48.756;9.246;2022-11-09T04:18:30;12.98;;;9.40;;
55647;SDS011;45266;48.756;9.246;2022-11-09T04:19:32;15.00;;;9.70;;
55647;SDS011;45266;48.756;9.246;2022-11-09T04:20:46;11.55;;;8.30;;
55647;SDS011;45266;48.756;9.246;2022-11-09T04:21:48;15.45;;;8.68;;
55647;SDS011;45266;48.756;9.246;2022-11-09T04:23:00;13.60;;;9.32;;
55647;SDS011;45266;48.756;9.246;2022-11-09T04:24:03;13.60;;;9.05;;
55647;SDS011;45266;48.756;9.246;2022-11-09T04:25:05;12.75;;;9.13;;
55647;SDS011;45266;48.756;9.246;2022-11-09T04:26:07;15.57;;;9.75;;
55647;SDS011;45266;48.756;9.246;2022-11-09T04:27:09;13.57;;;8.90;;
55647;SDS011;45266;48.756;9.246;2022-11-09T04:28:11;20.60;;;9.88;;
55647;SDS011;45266;48.756;9.246;2022-11-09T04:29:13;13.60;;;9.15;;
55647;SDS011;45266;48.756;9.246;2022-11-09T04:30:15;17.45;;;9.80;;
55647;SDS011;45266;48.756;9.246;2022-11-09T04:31:16;12.57;;;9.38;;
55647;SDS011;45266;48.756;9.246;2022-11-09T04:32:18;14.90;;;9.77;;
55647;SDS011;45266;48.756;9.246;2022-11-09T04:33:20;13.60;;;9.23;;
55647;SDS011;45266;48.756;9.246;2022-11-09T04:34:22;15.10;;;9.07;;
55647;SDS011;45266;48.756;9.246;2022-11-09T04:35:24;14.45;;;9.82;;
55647;SDS011;45266;48.756;9.246;2022-11-09T04:36:27;15.53;;;8.90;;
55647;SDS011;45266;48.756;9.246;2022-11-09T04:37:29;14.85;;;8.93;;
55647;SDS011;45266;48.756;9.246;2022-11-09T04:38:31;14.48;;;9.10;;
55647;SDS011;45266;48.756;9.246;2022-11-09T04:39:32;13.50;;;9.18;;
55647;SDS011;45266;48.756;9.246;2022-11-09T04:40:34;14.38;;;9.15;;
55647;SDS011;45266;48.756;9.246;2022-11-09T04:41:36;17.10;;;9.77;;
55647;SDS011;45266;48.756;9.246;2022-11-09T04:42:38;15.50;;;8.85;;
55647;SDS011;45266;48.756;9.246;2022-11-09T04:43:40;15.85;;;10.02;;
55647;SDS011;45266;48.756;9.246;2022-11-09T04:44:42;15.18;;;9.63;;
55647;SDS011;45266;48.756;9.246;2022-11-09T04:45:44;15.35;;;9.60;;
55647;SDS011;45266;48.756;9.246;2022-11-09T04:46:47;16.50;;;9.13;;
55647;SDS011;45266;48.756;9.246;2022-11-09T04:47:49;14.48;;;8.98;;
55647;SDS011;45266;48.756;9.246;2022-11-09T04:48:50;12.70;;;8.60;;
55647;SDS011;45266;48.756;9.246;2022-11-09T04:49:52;13.35;;;9.40;;
55647;SDS011;45266;48.756;9.246;2022-11-09T04:51:00;14.93;;;9.93;;
55647;SDS011;45266;48.756;9.246;2022-11-09T04:52:04;13.18;;;9.88;;
55647;SDS011;45266;48.756;9.246;2022-11-09T04:53:09;13.73;;;10.32;;
55647;SDS011;45266;48.756;9.246;2022-11-09T04:54:12;13.32;;;10.07;;
55647;SDS011;45266;48.756;9.246;2022-11-09T04:55:14;13.18;;;9.55;;
55647;SDS011;45266;48.756;9.246;2022-11-09T04:56:16;14.18;;;10.68;;
55647;SDS011;45266;48.756;9.246;2022-11-09T04:57:18;15.52;;;10.95;;
55647;SDS011;45266;48.756;9.246;2022-11-09T04:58:20;12.38;;;10.68;;
55647;SDS011;45266;48.756;9.246;2022-11-09T04:59:25;15.07;;;11.40;;
55647;SDS011;45266;48.756;9.246;2022-11-09T05:00:27;17.15;;;10.98;;
55647;SDS011;45266;48.756;9.246;2022-11-09T05:01:29;13.43;;;11.35;;
55647;SDS011;45266;48.756;9.246;2022-11-09T05:02:30;15.93;;;10.90;;
55647;SDS011;45266;48.756;9.246;2022-11-09T05:03:32;17.45;;;11.20;;
55647;SDS011;45266;48.756;9.246;2022-11-09T05:04:34;12.85;;;10.90;;
55647;SDS011;45266;48.756;9.246;2022-11-09T05:05:37;14.38;;;11.30;;
55647;SDS011;45266;48.756;9.246;2022-11-09T05:06:47;15.30;;;11.90;;
55647;SDS011;45266;48.756;9.246;2022-11-09T05:07:48;32.25;;;19.55;;
55647;SDS011;45266;48.756;9.246;2022-11-09T05:08:51;18.90;;;13.80;;
55647;SDS011;45266;48.756;9.246;2022-11-09T05:09:53;15.32;;;12.13;;
55647;SDS011;45266;48.756;9.246;2022-11-09T05:10:55;13.75;;;10.75;;
55647;SDS011;45266;48.756;9.246;2022-11-09T05:12:00;13.48;;;9.90;;
55647;SDS011;45266;48.756;9.246;2022-11-09T05:13:03;14.90;;;10.15;;
55647;SDS011;45266;48.756;9.246;2022-11-09T05:14:10;13.85;;;9.88;;
55647;SDS011;45266;48.756;9.246;2022-11-09T05:15:11;10.73;;;9.60;;
55647;SDS011;45266;48.756;9.246;2022-11-09T05:16:13;17.27;;;9.90;;
55647;SDS011;45266;48.756;9.246;2022-11-09T05:17:17;13.82;;;10.55;;
55647;SDS011;45266;48.756;9.246;2022-11-09T05:18:19;14.60;;;10.35;;
55647;SDS011;45266;48.756;9.246;2022-11-09T05:19:21;13.05;;;10.40;;
55647;SDS011;45266;48.756;9.246;2022-11-09T05:20:22;13.63;;;9.98;;
55647;SDS011;45266;48.756;9.246;2022-11-09T05:21:25;11.40;;;9.90;;
55647;SDS011;45266;48.756;9.246;2022-11-09T05:22:27;13.65;;;10.27;;
55647;SDS011;45266;48.756;9.246;2022-11-09T05:23:47;12.88;;;10.25;;
55647;SDS011;45266;48.756;9.246;2022-11-09T05:25:03;17.40;;;10.73;;
55647;SDS011;45266;48.756;9.246;2022-11-09T05:26:04;15.15;;;10.02;;
55647;SDS011;45266;48.756;9.246;2022-11-09T05:27:06;14.25;;;10.02;;
55647;SDS011;45266;48.756;9.246;2022-11-09T05:28:08;15.23;;;10.70;;
55647;SDS011;45266;48.756;9.246;2022-11-09T05:29:11;14.25;;;9.88;;
55647;SDS011;45266;48.756;9.246;2022-11-09T05:30:13;14.60;;;11.18;;
55647;SDS011;45266;48.756;9.246;2022-11-09T05:31:15;15.95;;;10.10;;
55647;SDS011;45266;48.756;9.246;2022-11-09T05:32:17;16.42;;;11.25;;
55647;SDS011;45266;48.756;9.246;2022-11-09T05:33:18;12.32;;;10.98;;
55647;SDS011;45266;48.756;9.246;2022-11-09T05:34:20;15.38;;;10.82;;
55647;SDS011;45266;48.756;9.246;2022-11-09T05:35:22;12.80;;;10.10;;
55647;SDS011;45266;48.756;9.246;2022-11-09T05:36:24;14.60;;;11.05;;
55647;SDS011;45266;48.756;9.246;2022-11-09T05:37:28;15.00;;;11.10;;
55647;SDS011;45266;48.756;9.246;2022-11-09T05:38:29;14.35;;;10.52;;
55647;SDS011;45266;48.756;9.246;2022-11-09T05:39:32;15.40;;;10.63;;
55647;SDS011;45266;48.756;9.246;2022-11-09T05:40:33;13.68;;;10.98;;
55647;SDS011;45266;48.756;9.246;2022-11-09T05:41:35;11.85;;;10.18;;
55647;SDS011;45266;48.756;9.246;2022-11-09T05:42:37;14.37;;;9.83;;
55647;SDS011;45266;48.756;9.246;2022-11-09T05:43:40;13.73;;;9.85;;
55647;SDS011;45266;48.756;9.246;2022-11-09T05:44:44;14.50;;;9.90;;
55647;SDS011;45266;48.756;9.246;2022-11-09T05:45:46;14.73;;;9.57;;
55647;SDS011;45266;48.756;9.246;2022-11-09T05:46:48;15.50;;;9.93;;
55647;SDS011;45266;48.756;9.246;2022-11-09T05:47:50;13.17;;;9.70;;
55647;SDS011;45266;48.756;9.246;2022-11-09T05:48:52;13.73;;;9.40;;
55647;SDS011;45266;48.756;9.246;2022-11-09T05:49:54;13.75;;;9.80;;
55647;SDS011;45266;48.756;9.246;2022-11-09T05:50:58;11.75;;;9.55;;
55647;SDS011;45266;48.756;9.246;2022-11-09T05:52:02;11.98;;;9.30;;
55647;SDS011;45266;48.756;9.246;2022-11-09T05:53:03;13.17;;;9.40;;
55647;SDS011;45266;48.756;9.246;2022-11-09T05:54:05;13.07;;;9.50;;
55647;SDS011;45266;48.756;9.246;2022-11-09T05:55:08;12.27;;;9.30;;
55647;SDS011;45266;48.756;9.246;2022-11-09T05:56:10;13.07;;;9.27;;
55647;SDS011;45266;48.756;9.246;2022-11-09T05:57:13;12.38;;;9.70;;
55647;SDS011;45266;48.756;9.246;2022-11-09T05:58:14;10.13;;;8.45;;
55647;SDS011;45266;48.756;9.246;2022-11-09T05:59:16;11.93;;;8.57;;
55647;SDS011;45266;48.756;9.246;2022-11-09T06:00:18;11.70;;;9.15;;
55647;SDS011;45266;48.756;9.246;2022-11-09T06:01:20;12.43;;;8.63;;
55647;SDS011;45266;48.756;9.246;2022-11-09T06:02:22;14.10;;;9.43;;
55647;SDS011;45266;48.756;9.246;2022-11-09T06:03:24;10.90;;;8.75;;
55647;SDS011;45266;48.756;9.246;2022-11-09T06:04:26;11.23;;;9.00;;
55647;SDS011;45266;48.756;9.246;2022-11-09T06:05:27;10.65;;;8.88;;
55647;SDS011;45266;48.756;9.246;2022-11-09T06:06:29;9.93;;;8.80;;
55647;SDS011;45266;48.756;9.246;2022-11-09T06:07:31;11.18;;;9.02;;
55647;SDS011;45266;48.756;9.246;2022-11-09T06:08:33;13.18;;;9.48;;
55647;SDS011;45266;48.756;9.246;2022-11-09T06:09:35;12.93;;;8.73;;
55647;SDS011;45266;48.756;9.246;2022-11-09T06:10:37;11.43;;;9.32;;
55647;SDS011;45266;48.756;9.246;2022-11-09T06:11:39;13.80;;;9.40;;
55647;SDS011;45266;48.756;9.246;2022-11-09T06:12:41;12.30;;;9.35;;
55647;SDS011;45266;48.756;9.246;2022-11-09T06:13:43;12.95;;;9.85;;
55647;SDS011;45266;48.756;9.246;2022-11-09T06:14:44;13.53;;;9.10;;
55647;SDS011;45266;48.756;9.246;2022-11-09T06:15:51;11.50;;;9.05;;
55647;SDS011;45266;48.756;9.246;2022-11-09T06:16:54;14.33;;;9.80;;